createdAt,value
2022-08-02T00:03:20.478Z,18.52
2022-08-02T00:06:44.925Z,18.33
2022-08-02T00:10:07.771Z,18.48
2022-08-02T00:13:28.722Z,18.36
2022-08-02T00:16:52.206Z,18.29
2022-08-02T00:20:13.633Z,18.21
2022-08-02T00:23:34.566Z,18.27
2022-08-02T00:27:15.970Z,18.77
2022-08-02T00:30:37.170Z,18.13
2022-08-02T00:34:27.462Z,18.11
2022-08-02T00:37:41.273Z,18.11
2022-08-02T00:41:02.323Z,17.84
2022-08-02T00:44:23.527Z,17.86
2022-08-02T00:47:44.810Z,17.85
2022-08-02T00:51:07.513Z,17.83
2022-08-02T00:54:28.537Z,17.78
2022-08-02T00:57:50.132Z,17.56
2022-08-02T01:01:11.682Z,17.56
2022-08-02T01:04:34.017Z,17.42
2022-08-02T01:07:56.631Z,17.33
2022-08-02T01:11:18.037Z,17.27
2022-08-02T01:14:39.811Z,17.28
2022-08-02T01:18:07.062Z,17.21
2022-08-02T01:21:41.960Z,17.03
2022-08-02T01:25:16.723Z,17.04
2022-08-02T01:28:44.682Z,17.74
2022-08-02T01:32:11.326Z,18.15
2022-08-02T01:35:49.297Z,17.93
2022-08-02T01:39:26.648Z,17.58
2022-08-02T01:42:55.986Z,18.09
2022-08-02T01:46:21.320Z,18.34
2022-08-02T01:49:46.041Z,18.03
2022-08-02T01:53:09.692Z,17.51
2022-08-02T01:56:30.931Z,17.19
2022-08-02T01:59:55.910Z,17.03
2022-08-02T02:03:21.427Z,16.90
2022-08-02T02:06:44.421Z,16.89
2022-08-02T02:10:08.677Z,16.83
2022-08-02T02:13:33.443Z,16.85
2022-08-02T02:16:58.618Z,16.76
2022-08-02T02:20:22.365Z,16.77
2022-08-02T02:23:43.628Z,16.75
2022-08-02T02:27:08.774Z,17.21
2022-08-02T02:30:33.599Z,17.37
2022-08-02T02:34:02.927Z,17.61
2022-08-02T02:37:28.121Z,17.26
2022-08-02T02:40:50.801Z,16.83
2022-08-02T02:44:14.989Z,17.40
2022-08-02T02:47:40.725Z,17.54
2022-08-02T02:51:05.607Z,17.58
2022-08-02T02:54:34.324Z,17.71
2022-08-02T02:57:57.300Z,17.75
2022-08-02T03:01:55.235Z,17.94
2022-08-02T03:05:14.059Z,17.79
2022-08-02T03:08:35.704Z,18.22
2022-08-02T03:11:59.800Z,17.78
2022-08-02T03:15:22.955Z,17.97
2022-08-02T03:18:45.196Z,16.82
2022-08-02T03:22:06.622Z,16.79
2022-08-02T03:25:27.791Z,16.78
2022-08-02T03:28:50.152Z,17.07
2022-08-02T03:32:11.484Z,16.86
2022-08-02T03:35:32.696Z,17.15
2022-08-02T03:38:56.155Z,17.08
2022-08-02T03:42:18.067Z,17.50
2022-08-02T03:45:44.799Z,17.95
2022-08-02T03:49:10.153Z,17.85
2022-08-02T03:52:33.658Z,17.57
2022-08-02T03:55:56.019Z,17.94
2022-08-02T03:59:18.237Z,17.70
2022-08-02T04:02:40.580Z,17.82
2022-08-02T04:06:04.494Z,17.11
2022-08-02T04:09:27.021Z,17.46
2022-08-02T04:12:48.795Z,17.38
2022-08-02T04:16:15.806Z,17.17
2022-08-02T04:19:44.682Z,17.57
2022-08-02T04:23:08.686Z,17.93
2022-08-02T04:26:31.511Z,17.48
2022-08-02T04:29:54.292Z,17.81
2022-08-02T04:33:16.330Z,17.83
2022-08-02T04:36:40.031Z,17.75
2022-08-02T04:40:01.366Z,17.92
2022-08-02T04:43:24.703Z,17.82
2022-08-02T04:46:47.494Z,17.90
2022-08-02T04:50:10.834Z,17.81
2022-08-02T04:53:33.566Z,17.14
2022-08-02T04:56:55.203Z,17.40
2022-08-02T05:00:17.712Z,16.64
2022-08-02T05:03:39.617Z,17.30
2022-08-02T05:07:00.979Z,17.63
2022-08-02T05:10:23.469Z,17.73
2022-08-02T05:13:57.715Z,17.87
2022-08-02T05:17:20.989Z,18.05
2022-08-02T05:20:42.070Z,17.79
2022-08-02T05:24:03.966Z,17.76
2022-08-02T05:27:27.005Z,18.02
2022-08-02T05:30:47.974Z,18.40
2022-08-02T05:34:12.115Z,18.11
2022-08-02T05:37:35.299Z,17.57
2022-08-02T05:40:56.680Z,17.82
2022-08-02T05:44:19.125Z,17.82
2022-08-02T05:47:40.988Z,18.04
2022-08-02T05:51:04.890Z,18.41
2022-08-02T05:54:39.417Z,18.50
2022-08-02T05:58:04.799Z,18.59
2022-08-02T06:01:36.659Z,18.75
2022-08-02T06:05:04.065Z,19.03
2022-08-02T06:08:30.587Z,18.90
2022-08-02T06:12:02.451Z,19.10
2022-08-02T06:15:24.455Z,19.02
2022-08-02T06:18:47.930Z,18.84
2022-08-02T06:22:33.796Z,19.32
2022-08-02T06:25:58.717Z,19.32
2022-08-02T06:29:23.513Z,19.46
2022-08-02T06:32:46.881Z,20.02
2022-08-02T06:36:16.843Z,19.54
2022-08-02T06:39:45.352Z,19.90
2022-08-02T06:43:12.839Z,20.23
2022-08-02T06:47:09.620Z,20.28
2022-08-02T06:50:16.575Z,20.33
2022-08-02T06:53:39.214Z,20.69
2022-08-02T06:57:00.839Z,20.95
2022-08-02T07:00:21.839Z,21.30
2022-08-02T07:03:43.535Z,21.02
2022-08-02T07:07:04.801Z,21.26
2022-08-02T07:10:27.693Z,20.69
2022-08-02T07:13:48.874Z,21.41
2022-08-02T07:17:10.050Z,21.23
2022-08-02T07:20:31.120Z,21.06
2022-08-02T07:23:52.318Z,21.27
2022-08-02T07:27:14.790Z,21.46
2022-08-02T07:30:36.979Z,21.53
2022-08-02T07:33:58.111Z,21.96
2022-08-02T07:37:52.751Z,22.09
2022-08-02T07:41:00.295Z,22.56
2022-08-02T07:44:23.644Z,22.09
2022-08-02T07:47:47.614Z,22.39
2022-08-02T07:51:11.198Z,22.84
2022-08-02T07:54:35.461Z,23.10
2022-08-02T07:57:56.926Z,23.20
2022-08-02T08:01:19.848Z,23.43
2022-08-02T08:04:41.155Z,24.28
2022-08-02T08:08:02.649Z,24.22
2022-08-02T08:11:24.210Z,23.80
2022-08-02T08:14:45.491Z,24.18
2022-08-02T08:18:08.035Z,24.91
2022-08-02T08:21:29.563Z,24.93
2022-08-02T08:24:51.104Z,25.35
2022-08-02T08:28:12.081Z,25.65
2022-08-02T08:31:33.597Z,24.70
2022-08-02T08:34:56.382Z,24.59
2022-08-02T08:38:17.698Z,25.39
2022-08-02T08:41:39.041Z,25.16
2022-08-02T08:45:01.177Z,24.92
2022-08-02T08:48:30.398Z,25.33
2022-08-02T08:51:56.452Z,25.43
2022-08-02T08:55:18.101Z,25.02
2022-08-02T08:58:39.972Z,26.46
2022-08-02T09:02:08.427Z,26.71
2022-08-02T09:05:39.727Z,26.46
2022-08-02T09:09:02.569Z,27.23
2022-08-02T09:12:25.062Z,27.38
2022-08-02T09:15:55.044Z,27.04
2022-08-02T09:19:20.739Z,27.13
2022-08-02T09:22:42.008Z,27.10
2022-08-02T09:26:07.806Z,26.76
2022-08-02T09:29:29.478Z,26.51
2022-08-02T09:32:50.840Z,26.74
2022-08-02T09:36:13.670Z,26.97
2022-08-02T09:39:47.591Z,26.66
2022-08-02T09:43:11.412Z,27.03
2022-08-02T09:46:33.593Z,27.70
2022-08-02T09:49:56.144Z,27.40
2022-08-02T09:53:20.914Z,27.94
2022-08-02T09:56:45.065Z,27.36
2022-08-02T10:00:15.036Z,27.76
2022-08-02T10:03:55.142Z,27.61
2022-08-02T10:07:17.623Z,28.13
2022-08-02T10:10:39.737Z,28.74
2022-08-02T10:14:03.244Z,28.30
2022-08-02T10:17:29.904Z,28.87
2022-08-02T10:20:59.005Z,28.34
2022-08-02T10:24:23.430Z,28.24
2022-08-02T10:28:04.823Z,27.76
2022-08-02T10:31:31.771Z,28.87
2022-08-02T10:35:18.178Z,28.82
2022-08-02T10:38:41.844Z,28.77
2022-08-02T10:42:03.165Z,28.91
2022-08-02T10:45:28.130Z,28.30
2022-08-02T10:49:36.319Z,29.59
2022-08-02T10:53:23.937Z,28.33
2022-08-02T10:56:49.991Z,28.36
2022-08-02T11:00:19.402Z,29.31
2022-08-02T11:03:45.457Z,28.97
2022-08-02T11:07:14.055Z,29.14
2022-08-02T11:10:38.541Z,29.34
2022-08-02T11:14:04.775Z,28.62
2022-08-02T11:17:28.816Z,28.69
2022-08-02T11:21:23.894Z,29.59
2022-08-02T11:24:44.958Z,29.10
2022-08-02T11:28:13.011Z,29.04
2022-08-02T11:31:40.868Z,29.04
2022-08-02T11:35:03.395Z,29.00
2022-08-02T11:38:24.725Z,29.57
2022-08-02T11:41:50.870Z,29.54
2022-08-02T11:45:21.297Z,29.82
2022-08-02T11:48:45.079Z,30.57
2022-08-02T11:52:10.112Z,29.17
2022-08-02T11:55:33.062Z,29.40
2022-08-02T11:59:05.805Z,29.87
2022-08-02T12:02:29.701Z,29.71
2022-08-02T12:06:04.376Z,29.95
2022-08-02T12:09:29.936Z,30.00
2022-08-02T12:12:52.048Z,29.52
2022-08-02T12:16:33.583Z,28.71
2022-08-02T12:19:56.522Z,30.05
2022-08-02T12:23:17.693Z,30.23
2022-08-02T12:26:48.597Z,30.67
2022-08-02T12:30:12.086Z,31.08
2022-08-02T12:33:47.264Z,30.15
2022-08-02T12:37:12.034Z,29.23
2022-08-02T12:40:34.415Z,29.74
2022-08-02T12:43:57.009Z,30.09
2022-08-02T12:47:21.564Z,30.29
2022-08-02T12:50:43.610Z,29.60
2022-08-02T12:54:17.844Z,29.85
2022-08-02T12:57:52.263Z,30.56
2022-08-02T13:01:22.341Z,30.23
2022-08-02T13:04:50.151Z,30.48
2022-08-02T13:08:12.319Z,30.36
2022-08-02T13:11:34.610Z,30.10
2022-08-02T13:14:55.781Z,30.17
2022-08-02T13:18:18.287Z,30.45
2022-08-02T13:21:41.623Z,30.03
2022-08-02T13:25:22.866Z,29.72
2022-08-02T13:28:45.585Z,30.49
2022-08-02T13:32:07.178Z,31.06
2022-08-02T13:35:29.102Z,30.22
2022-08-02T13:38:50.322Z,30.53
2022-08-02T13:42:16.034Z,30.74
2022-08-02T13:45:40.852Z,30.55
2022-08-02T13:49:02.127Z,30.66
2022-08-02T13:52:23.475Z,30.12
2022-08-02T13:55:44.569Z,30.19
2022-08-02T13:59:54.329Z,31.06
2022-08-02T14:02:49.804Z,31.71
2022-08-02T14:06:11.000Z,31.25
2022-08-02T14:09:32.569Z,30.14
2022-08-02T14:12:56.709Z,30.94
2022-08-02T14:16:18.543Z,30.81
2022-08-02T14:19:40.939Z,29.86
2022-08-02T14:23:02.264Z,30.33
2022-08-02T14:26:27.312Z,30.07
2022-08-02T14:29:51.274Z,30.19
2022-08-02T14:33:12.399Z,30.56
2022-08-02T14:36:35.155Z,29.98
2022-08-02T14:40:00.327Z,30.67
2022-08-02T14:43:36.246Z,30.62
2022-08-02T14:46:58.317Z,30.22
2022-08-02T14:50:20.568Z,30.65
2022-08-02T14:53:49.455Z,29.82
2022-08-02T14:57:24.178Z,29.91
2022-08-02T15:00:45.507Z,29.90
2022-08-02T15:04:07.117Z,30.37
2022-08-02T15:07:28.073Z,30.15
2022-08-02T15:10:50.814Z,29.72
2022-08-02T15:14:12.077Z,30.31
2022-08-02T15:17:33.389Z,30.40
2022-08-02T15:20:57.330Z,30.12
2022-08-02T15:24:18.989Z,30.74
2022-08-02T15:27:41.532Z,30.49
2022-08-02T15:31:02.670Z,30.62
2022-08-02T15:34:23.816Z,30.55
2022-08-02T15:37:44.951Z,31.02
2022-08-02T15:41:06.357Z,30.53
2022-08-02T15:44:29.008Z,30.17
2022-08-02T15:47:50.766Z,30.77
2022-08-02T15:51:13.577Z,30.65
2022-08-02T15:54:35.106Z,30.57
2022-08-02T15:57:56.938Z,30.03
2022-08-02T16:01:20.065Z,30.44
2022-08-02T16:04:41.431Z,30.66
2022-08-02T16:08:03.073Z,30.61
2022-08-02T16:11:24.195Z,30.09
2022-08-02T16:14:45.751Z,29.94
2022-08-02T16:18:08.670Z,30.61
2022-08-02T16:21:33.257Z,30.51
2022-08-02T16:24:55.125Z,30.71
2022-08-02T16:28:16.942Z,30.66
2022-08-02T16:31:42.462Z,30.05
2022-08-02T16:35:08.165Z,30.34
2022-08-02T16:38:30.423Z,30.24
2022-08-02T16:41:52.918Z,30.38
2022-08-02T16:45:14.632Z,30.66
2022-08-02T16:48:36.474Z,30.02
2022-08-02T16:51:59.748Z,30.01
2022-08-02T16:55:21.665Z,30.19
2022-08-02T16:58:45.038Z,30.14
2022-08-02T17:05:57.138Z,29.75
2022-08-02T17:10:04.389Z,30.03
2022-08-02T17:13:18.971Z,30.39
2022-08-02T17:16:41.211Z,30.01
2022-08-02T17:20:08.209Z,30.00
2022-08-02T17:24:06.117Z,29.85
2022-08-02T17:27:13.491Z,30.17
2022-08-02T17:30:39.768Z,29.86
2022-08-02T17:34:01.644Z,29.95
2022-08-02T17:37:23.517Z,29.91
2022-08-02T17:40:45.290Z,29.84
2022-08-02T17:44:09.426Z,29.70
2022-08-02T17:47:33.147Z,29.64
2022-08-02T17:51:04.536Z,29.87
2022-08-02T17:54:27.093Z,29.51
2022-08-02T17:57:57.070Z,29.62
2022-08-02T18:01:23.929Z,30.01
2022-08-02T18:04:46.238Z,29.80
2022-08-02T18:08:07.936Z,29.42
2022-08-02T18:11:52.071Z,29.18
2022-08-02T18:15:14.691Z,29.34
2022-08-02T18:18:38.153Z,28.96
2022-08-02T18:22:08.638Z,29.12
2022-08-02T18:25:37.893Z,29.27
2022-08-02T18:29:10.691Z,29.16
2022-08-02T18:32:37.809Z,29.03
2022-08-02T18:36:24.570Z,29.14
2022-08-02T18:39:51.370Z,28.79
2022-08-02T18:43:14.226Z,29.02
2022-08-02T18:46:36.046Z,28.73
2022-08-02T18:49:57.184Z,28.70
2022-08-02T18:53:28.280Z,28.56
2022-08-02T18:57:01.406Z,28.51
2022-08-02T19:00:33.504Z,28.38
2022-08-02T19:03:54.940Z,28.21
2022-08-02T19:07:18.337Z,28.35
2022-08-02T19:10:49.094Z,28.34
2022-08-02T19:14:11.117Z,28.21
2022-08-02T19:17:54.976Z,27.89
2022-08-02T19:21:15.841Z,27.89
2022-08-02T19:24:38.133Z,27.79
2022-08-02T19:28:06.057Z,27.99
2022-08-02T19:31:34.721Z,27.71
2022-08-02T19:35:19.168Z,27.76
2022-08-02T19:38:53.285Z,27.87
2022-08-02T19:42:15.355Z,27.49
2022-08-02T19:45:48.977Z,27.46
2022-08-02T19:49:20.133Z,27.02
2022-08-02T19:52:54.160Z,26.68
2022-08-02T19:56:20.881Z,27.10
2022-08-02T19:59:43.019Z,26.87
2022-08-02T20:03:05.512Z,26.72
2022-08-02T20:06:29.910Z,26.60
2022-08-02T20:09:51.888Z,26.76
2022-08-02T20:13:13.800Z,26.85
2022-08-02T20:16:37.662Z,26.92
2022-08-02T20:20:00.839Z,26.89
2022-08-02T20:23:32.743Z,26.52
2022-08-02T20:26:59.508Z,26.70
2022-08-02T20:30:21.827Z,26.84
2022-08-02T20:33:56.259Z,26.55
2022-08-02T20:37:59.422Z,26.62
2022-08-02T20:41:02.575Z,26.40
2022-08-02T20:44:30.639Z,26.46
2022-08-02T20:47:54.402Z,26.38
2022-08-02T20:51:18.452Z,26.45
2022-08-02T20:54:55.945Z,26.03
2022-08-02T20:58:18.558Z,25.94
2022-08-02T21:01:57.513Z,26.02
2022-08-02T21:05:19.024Z,25.78
2022-08-02T21:08:48.848Z,25.89
2022-08-02T21:12:12.548Z,26.04
2022-08-02T21:15:36.085Z,25.90
2022-08-02T21:19:00.272Z,26.24
2022-08-02T21:22:27.664Z,26.06
2022-08-02T21:25:57.561Z,26.17
2022-08-02T21:29:20.643Z,25.81
2022-08-02T21:32:42.107Z,25.62
2022-08-02T21:36:05.972Z,25.70
2022-08-02T21:39:27.128Z,25.60
2022-08-02T21:42:48.654Z,25.61
2022-08-02T21:46:14.551Z,25.49
2022-08-02T21:50:09.299Z,25.70
2022-08-02T21:53:18.912Z,25.56
2022-08-02T21:56:59.733Z,25.52
2022-08-02T22:00:28.513Z,25.56
2022-08-02T22:03:55.742Z,25.58
2022-08-02T22:07:23.587Z,25.34
2022-08-02T22:11:03.686Z,25.15
2022-08-02T22:14:25.123Z,25.41
2022-08-02T22:17:53.550Z,25.16
2022-08-02T22:21:27.649Z,25.26
2022-08-02T22:24:54.714Z,25.41
2022-08-02T22:28:38.756Z,25.12
2022-08-02T22:32:00.715Z,25.15
2022-08-02T22:35:21.654Z,25.02
2022-08-02T22:38:44.450Z,25.23
2022-08-02T22:42:07.299Z,25.25
2022-08-02T22:45:28.916Z,24.87
2022-08-02T22:48:53.475Z,24.82
2022-08-02T22:52:15.462Z,25.06
2022-08-02T22:55:42.594Z,24.96
2022-08-02T22:58:49.679Z,30.42
2022-08-02T23:02:40.812Z,24.71
2022-08-02T23:06:06.054Z,24.80
2022-08-02T23:09:27.138Z,24.96
2022-08-02T23:12:50.541Z,25.08
2022-08-02T23:16:29.247Z,25.05
2022-08-02T23:19:53.605Z,24.85
2022-08-02T23:23:14.702Z,24.84
2022-08-02T23:26:35.576Z,24.75
2022-08-02T23:29:58.219Z,24.55
2022-08-02T23:33:19.339Z,24.77
2022-08-02T23:36:40.774Z,24.66
2022-08-02T23:40:02.203Z,24.62
2022-08-02T23:43:23.617Z,24.86
2022-08-02T23:46:47.907Z,24.39
2022-08-02T23:50:09.741Z,24.33
2022-08-02T23:53:31.171Z,24.35
2022-08-02T23:56:52.284Z,24.37
